ZSNB

Ningbo Lishe International Airport

Ningbo, China
TAF ZSNB 211431Z 2118/2218 12004MPS 5000 BR BKN020 TX25/2206Z TN20/2120Z TEMPO 2206/2212 2500 SHRA BR FEW005 BKN020 FEW030CB
Issued Valid From Valid To
Jun-21 @ 14:31 UTC
(4 hours ago)
Jun-21 @ 18:00 UTC
(14 minutes ago)
Jun-22 @ 18:00 UTC
(in 24 hours)
Jun-21 @ 18:00 to Jun-22 @ 18:00
TAF ZSNB 211431Z 2118/2218 12004MPS 5000 BR BKN020 TX25/2206Z TN20/2120Z
Wind Visibility Clouds Conditions
120° at 8 knots 5,005 meters
  • Broken at 2,000' AGL
  • Mist
Temporary Jun-22 @ 06:00 to Jun-22 @ 12:00
TEMPO 2206/2212 2500 SHRA BR FEW005 BKN020 FEW030CB
Visibility Clouds Conditions
2,494 meters
  • Few at 500' AGL
  • Broken at 2,000' AGL
  • Few at 3,000' AGL
  • Rain
  • Mist
TAF ZSNB 211431Z 2118/2218 12004MPS 5000 BR BKN020 TX25/2206Z TN20/2120Z TEMPO 2206/2212 2500 SHRA BR FEW005 BKN020 FEW030CB
Issued Jun-21 @ 14:31 UTC
(4 hours ago)
Valid From Jun-21 @ 18:00 UTC
(14 minutes ago)
Valid To Jun-22 @ 18:00 UTC
(in 24 hours)
Jun-21 @ 18:00 - Jun-22 @ 18:00
Wind Visibility
120° at 8 knots 5,005 meters
Clouds
  • Broken at 2,000' AGL
Conditions
  • Mist
Temporary Jun-22 @ 06:00 - Jun-22 @ 12:00
Clouds
  • Few at 500' AGL
  • Broken at 2,000' AGL
  • Few at 3,000' AGL
Conditions
  • Rain
  • Mist